world map with TRO marked

TRO - Airport

This information may not be accurate or current and is not valid for navigation or flight planning. No warranty of fitness for any purpose is made or implied.

flag of New South Walesflag of Australia

Donate via PayPal

Additional information is available on the NEW Great Circle Mapper

Location
City:  Taree, New South Wales, Australia
ICAO / IATA:YTRE / TRO

Details
Type:Airport (Aerodrome, Airfield)
Latitude:31°53'19"S (-31.888610)
Longitude:152°30'50"E (152.513889)
Datum:WGS 1984
Elevation:38 ft (12 m)
Runways:2
Longest:4934 × 98 ft (1504 × 30 m)

Time
Timezone:UTC+10 (DST+13)
Local Time:

Weather
METAR:YTRE  191600Z AUTO 22007KT 9999 // OVC011 23/22 Q1017
TAF:YTRE  191253Z 1914/2002 20007KT 9999 -DZ BKN010 TEMPO 1914/2002 5000 DZ BKN008

Related Locations
Nearby:
Farthest:SMA: 12057 mi / 19404 km
Santa Maria, 20, PT

Find:

   beyond  
but within

Other Information
Maps:
Sources:

  


 


Great Circle Mapper   Great Circle Mapper
Great Circle Mapper FAQ   Great Circle Mapper FAQ
  Karl's Home Page
KLSē   KLSē Home
   GC on Facebook
Airlines of the World   Airlines of the World
Donate via PayPal


Copyright © 2004-2019, Karl L. Swartz. All rights reserved.
All trademarks mentioned herein belong to their respective owners.

Please see credits for attribution and copyright information.

Karl Swartz <karl@kls2.com>
  Powered by FreeBSD
Valid HTML 4.01!
Labeled with ICRA
hCard Microformat
Geo Microformat